Time;durP1;ratioP1;P1;durP2;ratioP2;P2;SDS_P1;SDS_P2;PMS_P1;PMS_P2;Temp;Humidity;BMP_temperature;BMP_pressure;BME280_temperature;BME280_humidity;BME280_pressure;Samples;Min_cycle;Max_cycle;Signal;HPM_P1;HPM_P2
2021/06/25 00:00:20;;;;;;;9.32;4.25;;;;;;;23.17;47.33;100563.44;5012889;28;20137;-68
2021/06/25 00:02:47;;;;;;;8.48;4.13;;;;;;;23.08;47.31;100557.09;5004324;28;20073;-71
2021/06/25 00:05:14;;;;;;;9.88;3.92;;;;;;;23.15;47.14;100571.53;4999407;28;20623;-71
2021/06/25 00:07:40;;;;;;;6.43;3.80;;;;;;;23.22;47.02;100585.97;5006246;28;20124;-69
2021/06/25 00:10:09;;;;;;;4.78;2.80;;;;;;;23.15;46.88;100565.84;5011251;28;20092;-70
2021/06/25 00:12:36;;;;;;;8.55;3.05;;;;;;;23.22;46.77;100571.72;5005630;28;20121;-61
2021/06/25 00:15:06;;;;;;;6.78;3.17;;;;;;;23.30;46.53;100570.72;4999214;28;20053;-67
2021/06/25 00:17:33;;;;;;;15.23;5.68;;;;;;;23.31;46.77;100574.38;5012147;28;20133;-67
2021/06/25 00:20:00;;;;;;;11.95;6.00;;;;;;;23.33;46.83;100574.84;5012295;28;20073;-79
2021/06/25 00:22:26;;;;;;;8.77;5.32;;;;;;;23.31;47.35;100574.38;5006314;28;20632;-75
2021/06/25 00:24:53;;;;;;;9.10;4.47;;;;;;;23.23;47.44;100573.38;5013140;28;20160;-74
2021/06/25 00:27:20;;;;;;;9.20;4.40;;;;;;;23.09;47.33;100553.88;5006399;28;20120;-70
2021/06/25 00:29:47;;;;;;;5.50;3.20;;;;;;;23.12;47.20;100561.69;5002286;28;20200;-70
2021/06/25 00:32:14;;;;;;;4.07;2.97;;;;;;;23.01;46.93;100542.63;5002573;28;20138;-65
2021/06/25 00:34:41;;;;;;;7.95;3.80;;;;;;;23.06;47.57;100545.22;4996429;28;20482;-66
2021/06/25 00:37:08;;;;;;;7.80;3.85;;;;;;;23.10;47.82;100557.53;4999297;28;20125;-66
2021/06/25 00:39:35;;;;;;;6.70;3.80;;;;;;;23.02;47.33;100541.47;5008647;28;20137;-66
2021/06/25 00:42:04;;;;;;;5.70;3.30;;;;;;;23.03;47.23;100543.94;5003776;28;20133;-67
2021/06/25 00:44:38;;;;;;;6.40;2.90;;;;;;;23.07;47.14;100542.00;5004318;28;20046;-74
2021/06/25 00:47:05;;;;;;;5.78;2.90;;;;;;;23.08;47.19;100534.31;4997409;28;20121;-71
2021/06/25 00:49:32;;;;;;;5.35;3.15;;;;;;;23.11;46.47;100548.66;5006196;28;20053;-71
2021/06/25 00:51:59;;;;;;;4.78;3.17;;;;;;;23.12;46.82;100541.75;5004603;28;20041;-68
2021/06/25 00:54:26;;;;;;;6.68;4.03;;;;;;;23.04;47.20;100539.06;5006924;28;20101;-68
2021/06/25 00:56:53;;;;;;;8.45;4.38;;;;;;;22.99;47.30;100531.63;5011982;28;20438;-67
2021/06/25 00:59:20;;;;;;;12.23;4.25;;;;;;;22.90;47.75;100537.44;5013931;28;20088;-78
2021/06/25 01:01:47;;;;;;;6.22;3.53;;;;;;;22.83;48.02;100542.94;5014166;28;20119;-79
2021/06/25 01:04:14;;;;;;;10.60;3.63;;;;;;;22.61;47.87;100512.25;5013760;28;20056;-78
2021/06/25 01:06:41;;;;;;;8.52;3.03;;;;;;;22.58;47.82;100510.94;5011688;28;20134;-78
2021/06/25 01:09:08;;;;;;;7.18;3.95;;;;;;;22.70;47.74;100529.97;5012830;28;20653;-78
2021/06/25 01:11:39;;;;;;;6.82;3.45;;;;;;;22.68;48.07;100523.81;4999395;28;20455;-80
2021/06/25 01:14:06;;;;;;;7.00;3.20;;;;;;;22.67;47.97;100525.03;5004874;28;20141;-70
2021/06/25 01:16:32;;;;;;;5.45;3.00;;;;;;;22.48;47.62;100494.38;5006744;28;20443;-69
2021/06/25 01:18:59;;;;;;;9.38;4.10;;;;;;;22.70;47.66;100522.28;5006621;28;20058;-68
2021/06/25 01:21:26;;;;;;;5.05;2.67;;;;;;;22.73;47.36;100522.72;5012298;28;20080;-69
2021/06/25 01:23:53;;;;;;;5.07;2.85;;;;;;;22.70;47.19;100513.72;5001123;28;20074;-71
2021/06/25 01:26:20;;;;;;;4.57;2.45;;;;;;;22.66;47.23;100503.41;4999446;28;20073;-70
2021/06/25 01:28:47;;;;;;;9.73;2.60;;;;;;;22.70;47.34;100512.88;4999053;28;20050;-68
2021/06/25 01:31:14;;;;;;;8.43;2.40;;;;;;;22.58;47.40;100499.56;5009919;28;20133;-66
2021/06/25 01:33:41;;;;;;;3.83;2.40;;;;;;;22.56;47.84;100515.31;5010417;28;20049;-67
2021/06/25 01:36:08;;;;;;;6.40;2.72;;;;;;;22.44;48.08;100499.97;5010233;28;20077;-67
2021/06/25 01:38:35;;;;;;;6.50;2.80;;;;;;;22.51;48.05;100518.44;5011359;28;20140;-68
2021/06/25 01:41:02;;;;;;;5.57;3.20;;;;;;;22.42;48.47;100515.75;4998373;28;20139;-67
2021/06/25 01:43:30;;;;;;;3.85;2.80;;;;;;;22.39;48.43;100514.47;5003738;28;21673;-72
2021/06/25 01:45:58;;;;;;;9.48;2.78;;;;;;;22.47;48.54;100522.00;5007961;28;20053;-68
2021/06/25 01:48:25;;;;;;;5.10;3.40;;;;;;;22.54;48.25;100514.88;5008771;28;20069;-67
2021/06/25 01:50:52;;;;;;;8.25;4.55;;;;;;;22.51;49.00;100524.97;4992568;28;20078;-67
2021/06/25 01:53:19;;;;;;;14.63;4.15;;;;;;;22.51;48.97;100522.13;5000948;28;20084;-66
2021/06/25 01:55:49;;;;;;;7.20;3.80;;;;;;;22.50;48.85;100511.94;5003464;28;20042;-68
2021/06/25 01:58:24;;;;;;;7.60;3.90;;;;;;;22.44;48.60;100505.66;4998039;28;20053;-76
2021/06/25 02:01:17;;;;;;;10.77;3.75;;;;;;;22.41;48.64;100512.06;5004670;28;20046;-62
2021/06/25 02:03:47;;;;;;;9.98;4.13;;;;;;;22.26;48.96;100495.78;4998538;28;20133;-62
2021/06/25 02:06:15;;;;;;;7.45;3.67;;;;;;;22.31;49.21;100506.06;5011489;28;20118;-63
2021/06/25 02:08:43;;;;;;;6.07;3.42;;;;;;;22.26;49.21;100504.31;5006089;28;20372;-65
2021/06/25 02:11:11;;;;;;;8.20;3.55;;;;;;;22.14;49.35;100492.94;5010380;28;20077;-63
2021/06/25 02:13:38;;;;;;;7.57;3.83;;;;;;;22.07;49.65;100498.41;5007096;28;20114;-62
2021/06/25 02:16:05;;;;;;;8.23;4.38;;;;;;;21.94;49.94;100489.09;5001419;28;20137;-62
2021/06/25 02:18:32;;;;;;;8.23;3.72;;;;;;;21.92;49.88;100497.16;4999377;28;20553;-63
2021/06/25 02:20:59;;;;;;;7.90;4.43;;;;;;;21.65;50.17;100458.97;5008972;28;20096;-63
2021/06/25 02:23:26;;;;;;;10.05;4.00;;;;;;;21.81;50.56;100495.97;5011631;28;20132;-64
2021/06/25 02:25:53;;;;;;;6.78;3.83;;;;;;;21.68;50.49;100495.19;5000629;28;20136;-64
2021/06/25 02:28:21;;;;;;;9.15;3.83;;;;;;;21.70;50.34;100484.28;5002276;28;20124;-62
2021/06/25 02:30:51;;;;;;;4.82;2.50;;;;;;;21.72;50.16;100487.59;5001555;28;20042;-62
2021/06/25 02:33:18;;;;;;;8.52;3.67;;;;;;;21.72;50.53;100488.44;4998406;28;20043;-62
2021/06/25 02:35:45;;;;;;;4.40;3.45;;;;;;;21.62;50.79;100479.56;4992773;28;20549;-62
2021/06/25 02:38:12;;;;;;;6.40;3.38;;;;;;;21.55;51.10;100483.00;4999292;28;20149;-64
2021/06/25 02:40:39;;;;;;;8.50;3.03;;;;;;;21.46;51.50;100485.97;5009145;28;20490;-63
2021/06/25 02:43:06;;;;;;;5.05;3.33;;;;;;;21.40;51.64;100484.56;5010558;28;20050;-64
2021/06/25 02:45:33;;;;;;;5.18;2.78;;;;;;;21.39;51.77;100490.59;4997416;28;20141;-64
2021/06/25 02:48:00;;;;;;;6.85;2.58;;;;;;;21.38;51.80;100488.94;4997451;28;20045;-62
2021/06/25 02:50:27;;;;;;;5.63;3.15;;;;;;;21.24;51.96;100469.38;4993545;28;20053;-68
2021/06/25 02:52:55;;;;;;;5.53;2.60;;;;;;;21.33;51.79;100480.59;5003211;28;20042;-67
2021/06/25 02:55:22;;;;;;;3.92;2.42;;;;;;;21.28;51.74;100473.16;4997366;28;20073;-67
2021/06/25 02:57:49;;;;;;;6.20;3.15;;;;;;;21.24;51.79;100477.91;5010582;28;20069;-69
2021/06/25 03:00:17;;;;;;;5.28;2.63;;;;;;;21.20;51.79;100460.75;5010900;28;20125;-70
2021/06/25 03:02:44;;;;;;;5.88;3.42;;;;;;;21.24;51.80;100466.53;5009437;28;20045;-68
2021/06/25 03:05:14;;;;;;;5.18;3.03;;;;;;;21.23;51.81;100464.84;5007883;28;20089;-67
2021/06/25 03:07:41;;;;;;;5.90;3.17;;;;;;;21.10;51.93;100449.03;5002327;28;20575;-68
2021/06/25 03:10:09;;;;;;;5.22;3.03;;;;;;;20.94;52.43;100449.72;5007561;28;20132;-68
2021/06/25 03:12:36;;;;;;;7.97;3.53;;;;;;;20.94;52.67;100463.91;5014317;28;20069;-65
2021/06/25 03:15:06;;;;;;;7.25;3.28;;;;;;;20.88;52.84;100462.47;5013518;28;20483;-60
2021/06/25 03:17:33;;;;;;;5.90;3.10;;;;;;;20.80;53.10;100458.56;5002760;28;20070;-59
2021/06/25 03:20:00;;;;;;;5.25;3.47;;;;;;;20.74;53.31;100459.13;4999649;28;20125;-59
2021/06/25 03:22:27;;;;;;;5.15;2.72;;;;;;;20.69;53.61;100470.72;5004035;28;20129;-59
2021/06/25 03:24:54;;;;;;;6.55;2.60;;;;;;;20.58;53.86;100461.81;5006330;28;20142;-60
2021/06/25 03:27:21;;;;;;;4.25;2.55;;;;;;;20.51;53.66;100464.41;5005889;28;20097;-60
2021/06/25 03:29:48;;;;;;;4.50;2.58;;;;;;;20.46;54.08;100465.41;5007967;28;20141;-60
2021/06/25 03:32:14;;;;;;;5.32;3.22;;;;;;;20.38;54.60;100466.34;5010960;28;20138;-60
2021/06/25 03:34:43;;;;;;;8.60;2.90;;;;;;;20.35;54.49;100467.03;5011844;28;20057;-60
2021/06/25 03:37:09;;;;;;;6.50;3.15;;;;;;;20.32;54.32;100462.88;5026831;28;20158;-60
2021/06/25 03:39:36;;;;;;;5.72;2.60;;;;;;;20.29;54.63;100459.94;5006015;28;20041;-60
2021/06/25 03:42:04;;;;;;;5.80;2.80;;;;;;;20.21;54.36;100455.19;5008507;28;20144;-59
2021/06/25 03:44:30;;;;;;;7.00;3.35;;;;;;;20.24;54.60;100455.31;4994942;28;20138;-60
2021/06/25 03:46:57;;;;;;;6.90;3.22;;;;;;;20.10;54.83;100452.78;5010740;28;20129;-63
2021/06/25 03:49:24;;;;;;;8.05;3.25;;;;;;;19.97;55.08;100448.22;5006320;28;20136;-60
2021/06/25 03:51:51;;;;;;;4.75;3.35;;;;;;;20.08;54.94;100460.78;5013046;28;20132;-60
2021/06/25 03:54:18;;;;;;;6.15;3.05;;;;;;;20.00;55.28;100458.88;5001748;28;20124;-62
2021/06/25 03:56:46;;;;;;;3.30;2.38;;;;;;;20.00;55.19;100464.53;5008021;28;20046;-62
2021/06/25 03:59:13;;;;;;;4.93;2.30;;;;;;;20.06;54.95;100462.28;5003664;28;20057;-63
2021/06/25 04:01:41;;;;;;;4.25;2.72;;;;;;;20.09;54.86;100451.09;5003624;28;20100;-64
2021/06/25 04:04:09;;;;;;;3.50;2.63;;;;;;;20.04;54.61;100445.66;5008600;28;20088;-65
2021/06/25 04:06:36;;;;;;;4.10;2.33;;;;;;;20.12;54.42;100449.56;4994547;28;20137;-67
2021/06/25 04:09:04;;;;;;;4.15;2.33;;;;;;;20.15;54.23;100448.88;4999368;28;20060;-66
2021/06/25 04:11:32;;;;;;;3.13;2.10;;;;;;;19.52;53.90;100369.56;5005041;28;20073;-62
2021/06/25 04:13:59;;;;;;;7.10;2.72;;;;;;;20.19;53.84;100457.53;5006531;28;20124;-61
2021/06/25 04:16:25;;;;;;;5.20;2.05;;;;;;;20.19;53.70;100451.84;5012270;28;20153;-63
2021/06/25 04:18:52;;;;;;;3.00;2.05;;;;;;;20.15;53.58;100439.56;5013615;28;20058;-59
2021/06/25 04:21:22;;;;;;;3.58;1.80;;;;;;;20.21;53.19;100439.00;5013203;28;20060;-64
2021/06/25 04:23:49;;;;;;;3.10;2.10;;;;;;;20.15;52.89;100425.38;5008097;28;20112;-64
2021/06/25 04:26:16;;;;;;;3.72;1.88;;;;;;;20.25;52.54;100441.97;5001560;28;20092;-63
2021/06/25 04:28:43;;;;;;;4.20;2.60;;;;;;;20.27;52.42;100443.28;5011936;28;20475;-64
2021/06/25 04:31:10;;;;;;;3.33;2.10;;;;;;;20.28;52.54;100442.09;5007093;28;20592;-62
2021/06/25 04:33:39;;;;;;;3.08;1.77;;;;;;;20.26;52.53;100447.25;5001733;28;20050;-64
2021/06/25 04:36:06;;;;;;;3.72;1.63;;;;;;;20.12;52.63;100433.38;5011766;28;20141;-63
2021/06/25 04:38:33;;;;;;;4.70;1.90;;;;;;;20.19;52.29;100444.16;5002014;28;20090;-63
2021/06/25 04:41:01;;;;;;;2.40;1.73;;;;;;;20.23;52.35;100438.63;4997630;28;20477;-63
2021/06/25 04:43:29;;;;;;;3.15;1.60;;;;;;;20.18;52.04;100436.84;5004135;28;20081;-63
2021/06/25 04:45:58;;;;;;;4.97;2.25;;;;;;;19.95;52.15;100396.69;5004449;28;20133;-62
2021/06/25 04:48:26;;;;;;;2.85;1.77;;;;;;;20.18;52.12;100441.69;5010139;28;20052;-68
2021/06/25 04:50:53;;;;;;;2.35;1.40;;;;;;;20.15;52.07;100442.38;4994928;28;20104;-67
2021/06/25 04:53:20;;;;;;;7.55;1.92;;;;;;;20.15;51.74;100442.38;4994163;28;20137;-65
2021/06/25 04:55:47;;;;;;;2.42;1.80;;;;;;;20.08;51.56;100446.59;5004240;28;20124;-61
2021/06/25 04:58:16;;;;;;;2.72;1.40;;;;;;;20.16;51.60;100438.38;4993975;28;20133;-64
2021/06/25 05:00:44;;;;;;;5.78;1.48;;;;;;;20.19;51.13;100449.00;5007259;28;20087;-64
2021/06/25 05:03:12;;;;;;;3.97;2.20;;;;;;;20.26;50.80;100438.75;5008121;28;20046;-64
2021/06/25 05:05:42;;;;;;;2.70;1.50;;;;;;;20.29;50.53;100438.06;5020458;28;20100;-65
2021/06/25 05:08:09;;;;;;;5.38;1.95;;;;;;;20.41;50.12;100436.44;4997858;28;20108;-64
2021/06/25 05:10:37;;;;;;;2.63;1.63;;;;;;;20.47;49.57;100447.22;4993960;28;20129;-63
2021/06/25 05:13:04;;;;;;;2.08;1.35;;;;;;;20.55;49.00;100445.50;5005952;28;20085;-62
2021/06/25 05:15:32;;;;;;;3.10;1.55;;;;;;;20.53;49.25;100433.69;5002756;28;20050;-63
2021/06/25 05:18:12;;;;;;;3.45;1.67;;;;;;;20.53;48.99;100426.00;5010776;28;20494;-63
2021/06/25 05:21:02;;;;;;;4.85;1.85;;;;;;;20.69;48.68;100448.03;5010885;28;20050;-65
2021/06/25 05:23:29;;;;;;;;;;;;;;;20.63;48.72;100441.75;5011204;28;20140;-66
2021/06/25 05:25:56;;;;;;;2.70;1.77;;;;;;;20.81;48.33;100448.84;5008359;28;20015;-65
2021/06/25 05:28:23;;;;;;;3.38;1.17;;;;;;;20.96;48.07;100438.03;5001436;28;20058;-65
2021/06/25 05:30:50;;;;;;;4.30;1.80;;;;;;;21.19;47.14;100447.69;5000504;28;20134;-65
2021/06/25 05:33:17;;;;;;;2.80;2.00;;;;;;;21.36;46.95;100448.69;5011176;28;20042;-64
2021/06/25 05:35:44;;;;;;;2.92;1.65;;;;;;;21.48;46.29;100438.16;5011322;28;20580;-64
2021/06/25 05:38:13;;;;;;;4.88;1.80;;;;;;;21.69;46.01;100440.00;5007247;28;20145;-65
2021/06/25 05:40:42;;;;;;;10.73;1.92;;;;;;;21.80;45.72;100428.97;5010607;28;20397;-66
2021/06/25 05:43:10;;;;;;;1.95;1.45;;;;;;;22.01;45.12;100446.66;5005105;28;20442;-66
2021/06/25 05:45:37;;;;;;;2.33;1.60;;;;;;;22.07;44.87;100425.31;5003363;28;20456;-66
2021/06/25 05:48:05;;;;;;;3.03;1.55;;;;;;;22.32;44.62;100445.13;5009887;28;20060;-65
2021/06/25 05:50:32;;;;;;;1.75;1.33;;;;;;;22.42;44.25;100447.47;4997778;28;20077;-66
2021/06/25 05:53:00;;;;;;;3.42;1.83;;;;;;;22.58;43.74;100450.34;5007232;28;20042;-65
2021/06/25 05:55:27;;;;;;;3.40;1.65;;;;;;;22.66;43.51;100452.19;5023801;28;20054;-66
2021/06/25 05:57:54;;;;;;;2.08;1.15;;;;;;;22.69;43.10;100457.16;5012353;28;20129;-63
2021/06/25 06:00:21;;;;;;;2.70;1.35;;;;;;;22.80;42.75;100449.72;5012065;28;20124;-64
2021/06/25 06:02:48;;;;;;;3.90;1.30;;;;;;;23.09;42.70;100453.34;5007287;28;21988;-63
2021/06/25 06:05:15;;;;;;;5.47;1.60;;;;;;;23.24;41.82;100461.06;5006267;28;20128;-63
2021/06/25 06:07:42;;;;;;;1.77;1.10;;;;;;;23.36;41.24;100463.81;5007774;28;20124;-64
2021/06/25 06:10:09;;;;;;;1.88;1.17;;;;;;;23.37;40.89;100436.97;5005684;28;20078;-63
2021/06/25 06:12:37;;;;;;;2.03;1.30;;;;;;;23.54;40.27;100454.88;5006110;28;20084;-64
2021/06/25 06:15:05;;;;;;;1.83;1.20;;;;;;;23.87;40.69;100454.44;5000984;28;20038;-60
2021/06/25 06:17:32;;;;;;;3.05;1.35;;;;;;;23.87;40.04;100431.63;5006210;28;20049;-63
2021/06/25 06:20:03;;;;;;;4.28;1.20;;;;;;;24.01;39.32;100436.81;5009533;28;20132;-62
2021/06/25 06:33:41;;;;;;;3.70;1.23;;;;;;;24.45;38.07;100399.44;4993126;28;20101;-61
2021/06/25 06:38:55;;;;;;;1.63;1.42;;;;;;;25.06;37.76;100447.88;5010394;28;20149;-61
2021/06/25 06:41:22;;;;;;;1.50;1.20;;;;;;;25.12;37.27;100453.28;5005898;28;20129;-61
2021/06/25 06:43:49;;;;;;;1.50;0.93;;;;;;;25.18;37.02;100458.28;5010150;28;20138;-61
2021/06/25 06:46:16;;;;;;;2.10;1.33;;;;;;;25.34;36.71;100454.47;5006153;28;20054;-61
2021/06/25 06:48:46;;;;;;;1.33;1.05;;;;;;;25.31;36.43;100449.53;5010121;28;20069;-62
2021/06/25 06:51:17;;;;;;;1.67;1.10;;;;;;;25.30;36.54;100448.69;5008997;28;20046;-62
2021/06/25 06:53:44;;;;;;;1.95;1.20;;;;;;;25.38;36.50;100461.88;5011026;28;20125;-62
2021/06/25 06:56:18;;;;;;;1.45;0.88;;;;;;;25.37;36.23;100451.66;5013275;28;20125;-62
2021/06/25 06:58:46;;;;;;;1.98;1.00;;;;;;;25.41;36.12;100455.41;5011132;28;20121;-62
2021/06/25 07:01:13;;;;;;;1.38;0.90;;;;;;;25.47;36.12;100462.44;5011152;28;20069;-61
2021/06/25 07:03:59;;;;;;;5.75;0.85;;;;;;;25.49;35.96;100462.06;5012843;28;20081;-61
2021/06/25 07:06:26;;;;;;;1.13;0.80;;;;;;;25.61;35.74;100461.84;5005356;28;20141;-62
2021/06/25 07:08:53;;;;;;;1.95;1.08;;;;;;;25.54;35.60;100438.88;5006588;28;20070;-62
2021/06/25 07:11:20;;;;;;;1.13;0.77;;;;;;;25.74;35.60;100454.69;5002976;28;20138;-62
2021/06/25 07:13:47;;;;;;;3.45;1.25;;;;;;;25.83;35.32;100456.47;5008758;28;20048;-62
2021/06/25 07:16:14;;;;;;;5.75;1.55;;;;;;;25.91;35.27;100464.75;5014556;28;20092;-62
2021/06/25 07:18:42;;;;;;;1.88;1.30;;;;;;;26.10;34.68;100460.13;5013711;28;20038;-62
2021/06/25 07:21:09;;;;;;;1.40;1.02;;;;;;;26.33;35.06;100462.88;5013935;28;20084;-62
2021/06/25 07:23:37;;;;;;;2.63;0.98;;;;;;;26.44;35.16;100453.19;5013836;28;20132;-61
2021/06/25 07:26:04;;;;;;;1.98;1.20;;;;;;;26.56;34.67;100465.59;5012979;28;20073;-61
2021/06/25 07:28:31;;;;;;;1.45;1.20;;;;;;;26.75;34.66;100464.59;5012931;28;20053;-61
2021/06/25 07:30:58;;;;;;;5.00;1.48;;;;;;;26.76;34.85;100467.06;5013172;28;20038;-60
2021/06/25 07:33:25;;;;;;;1.00;0.90;;;;;;;26.56;34.41;100431.22;5005932;28;20073;-61
2021/06/25 07:35:55;;;;;;;4.18;1.70;;;;;;;26.82;33.93;100456.88;5001941;28;20057;-62
2021/06/25 07:38:22;;;;;;;0.80;0.80;;;;;;;26.98;34.20;100476.72;5009905;28;20057;-60
2021/06/25 07:40:49;;;;;;;1.15;1.05;;;;;;;27.05;33.66;100475.97;5013670;28;20133;-60
2021/06/25 07:43:18;;;;;;;6.20;1.33;;;;;;;26.97;34.15;100451.28;5009513;28;20046;-61
2021/06/25 07:45:45;;;;;;;2.53;0.63;;;;;;;27.13;33.36;100475.63;5004882;28;20119;-60
2021/06/25 07:48:12;;;;;;;3.35;1.13;;;;;;;27.21;33.13;100467.09;4997768;28;20147;-60
2021/06/25 07:50:39;;;;;;;0.70;0.70;;;;;;;26.98;32.77;100445.19;5001501;28;20045;-60
2021/06/25 07:53:10;;;;;;;0.60;0.60;;;;;;;27.00;32.86;100462.78;5011671;28;20041;-60
2021/06/25 07:55:42;;;;;;;0.50;0.50;;;;;;;26.99;32.91;100449.69;5010848;28;20068;-60
2021/06/25 07:58:11;;;;;;;0.60;0.60;;;;;;;26.98;33.10;100458.69;5011134;28;20525;-60
2021/06/25 08:00:38;;;;;;;1.17;0.70;;;;;;;26.99;32.59;100481.22;5012870;28;20046;-60
2021/06/25 08:03:06;;;;;;;0.73;0.70;;;;;;;27.10;32.39;100462.06;5013432;28;20470;-60
2021/06/25 08:05:33;;;;;;;0.40;0.40;;;;;;;26.41;32.87;100361.50;5003655;28;20529;-60
2021/06/25 08:08:00;;;;;;;1.88;1.13;;;;;;;27.33;32.71;100458.19;4994014;28;20765;-60
2021/06/25 08:10:27;;;;;;;0.85;0.85;;;;;;;27.41;32.34;100457.03;5012283;28;20434;-60
2021/06/25 08:12:55;;;;;;;1.88;0.60;;;;;;;27.45;32.34;100466.47;5013289;28;20046;-61
2021/06/25 08:15:22;;;;;;;2.80;1.10;;;;;;;27.31;32.26;100432.78;5013034;28;20540;-60
2021/06/25 08:17:48;;;;;;;1.20;0.70;;;;;;;27.56;32.45;100478.88;5013545;28;20069;-60
2021/06/25 08:20:15;;;;;;;2.60;0.68;;;;;;;27.63;32.16;100470.31;5013494;28;20124;-60
2021/06/25 08:22:42;;;;;;;1.05;0.95;;;;;;;27.68;32.35;100451.06;5013416;28;20124;-60
2021/06/25 08:25:09;;;;;;;2.75;1.55;;;;;;;27.88;32.12;100466.81;5012640;28;20132;-61
2021/06/25 08:27:36;;;;;;;1.05;0.70;;;;;;;27.93;31.53;100468.47;5010121;28;20582;-60
2021/06/25 08:30:05;;;;;;;0.95;0.70;;;;;;;27.85;32.17;100459.81;4993294;28;20092;-60
2021/06/25 08:32:32;;;;;;;3.03;1.00;;;;;;;27.96;31.82;100476.28;4993792;28;20046;-60
2021/06/25 08:34:59;;;;;;;1.67;0.90;;;;;;;28.03;31.68;100462.78;4993300;28;20509;-60
2021/06/25 08:37:25;;;;;;;1.65;1.00;;;;;;;28.28;31.58;100462.91;5003012;28;20116;-59
2021/06/25 08:39:54;;;;;;;1.50;1.40;;;;;;;28.50;31.18;100455.22;5012881;28;20108;-59
2021/06/25 08:42:21;;;;;;;6.03;0.82;;;;;;;28.58;31.02;100464.69;5013223;28;20141;-59
2021/06/25 08:44:48;;;;;;;3.20;0.80;;;;;;;28.55;30.80;100457.72;5012670;28;20133;-60
2021/06/25 08:47:15;;;;;;;0.90;0.90;;;;;;;28.52;30.93;100461.41;5012847;28;20141;-60
2021/06/25 08:49:47;;;;;;;1.42;1.25;;;;;;;28.87;30.95;100459.84;5012729;28;20141;-60
2021/06/25 08:52:14;;;;;;;1.23;0.82;;;;;;;29.11;31.12;100434.44;5012806;28;20565;-62
2021/06/25 08:54:40;;;;;;;1.02;0.82;;;;;;;29.07;30.87;100450.88;5004846;28;20133;-60
2021/06/25 08:57:08;;;;;;;2.75;1.00;;;;;;;29.39;30.62;100463.19;5012528;28;20081;-60
2021/06/25 08:59:36;;;;;;;0.82;0.82;;;;;;;29.73;30.58;100468.50;5012371;28;20073;-60
2021/06/25 09:02:03;;;;;;;1.95;1.27;;;;;;;29.65;30.06;100464.03;5012029;28;20092;-60
2021/06/25 09:04:37;;;;;;;1.58;1.00;;;;;;;30.03;30.13;100462.28;5010927;28;20045;-61
2021/06/25 09:07:07;;;;;;;0.90;0.80;;;;;;;30.17;30.25;100453.59;5012626;28;20137;-61
2021/06/25 09:09:41;;;;;;;3.72;1.52;;;;;;;29.86;29.67;100440.94;5012329;28;20085;-61
2021/06/25 09:12:22;;;;;;;0.73;0.73;;;;;;;29.61;29.62;100443.06;5011939;28;20505;-60
2021/06/25 09:15:05;;;;;;;3.58;1.30;;;;;;;29.43;29.99;100445.91;5012489;28;20046;-61
2021/06/25 09:17:33;;;;;;;6.22;1.67;;;;;;;29.69;29.96;100442.63;5012346;28;20078;-61
2021/06/25 09:20:05;;;;;;;2.08;1.00;;;;;;;30.21;29.80;100442.91;5022720;28;20067;-61
2021/06/25 09:22:48;;;;;;;0.80;0.80;;;;;;;30.10;29.15;100450.72;4992590;28;20047;-60
2021/06/25 09:25:15;;;;;;;2.35;1.20;;;;;;;30.09;28.94;100454.03;5005311;28;20050;-61
2021/06/25 09:27:42;;;;;;;4.28;1.10;;;;;;;30.07;28.90;100454.44;5011714;28;20100;-60
2021/06/25 09:30:12;;;;;;;3.88;1.02;;;;;;;30.09;29.25;100448.28;5012265;28;20137;-61
2021/06/25 09:32:43;;;;;;;6.38;1.27;;;;;;;30.32;28.79;100442.03;5008465;28;20048;-61
2021/06/25 09:35:15;;;;;;;2.22;1.10;;;;;;;30.50;28.33;100439.06;5011764;28;20042;-60
2021/06/25 09:37:46;;;;;;;3.47;1.52;;;;;;;30.91;28.65;100431.41;5013679;28;20124;-68
2021/06/25 09:40:14;;;;;;;1.88;1.45;;;;;;;30.90;28.52;100452.81;5012518;28;20184;-63
2021/06/25 09:42:43;;;;;;;6.43;1.53;;;;;;;31.02;27.85;100448.63;5003289;28;20137;-69
2021/06/25 09:45:16;;;;;;;1.00;0.88;;;;;;;31.03;27.86;100450.28;5007472;28;20189;-68
2021/06/25 09:47:44;;;;;;;3.30;1.00;;;;;;;30.98;27.27;100458.56;5000145;28;20056;-68
2021/06/25 09:50:19;;;;;;;4.53;1.30;;;;;;;31.17;28.01;100437.81;5010553;28;20076;-68
2021/06/25 09:52:51;;;;;;;4.18;1.20;;;;;;;31.80;27.62;100452.91;5004151;28;20457;-68
2021/06/25 09:55:28;;;;;;;3.45;1.10;;;;;;;32.16;26.93;100440.97;5001235;28;20093;-66
2021/06/25 10:03:46;;;;;;;1.70;1.20;;;;;;;33.05;27.16;100438.94;5012539;28;20045;-69
2021/06/25 10:06:17;;;;;;;2.67;1.25;;;;;;;33.44;26.74;100443.25;4993216;28;20137;-69
2021/06/25 10:08:44;;;;;;;3.05;1.33;;;;;;;33.49;26.83;100451.44;5013756;28;20120;-68
2021/06/25 10:11:13;;;;;;;1.33;1.10;;;;;;;32.84;25.50;100442.94;5006188;28;20477;-69
2021/06/25 10:13:41;;;;;;;;;;;;;;;32.40;26.44;100441.88;5009562;28;20078;-69
2021/06/25 10:16:13;;;;;;;5.10;1.25;;;;;;;32.52;26.31;100452.91;5013046;28;19928;-69
2021/06/25 10:18:45;;;;;;;1.63;0.82;;;;;;;32.80;26.51;100433.50;5015920;28;20046;-69
2021/06/25 10:21:14;;;;;;;3.90;1.20;;;;;;;33.36;27.07;100441.72;5015690;28;20089;-69
2021/06/25 10:23:50;;;;;;;5.68;1.00;;;;;;;33.58;26.37;100450.88;5015417;28;20153;-69
2021/06/25 10:26:19;;;;;;;1.05;0.93;;;;;;;33.62;25.58;100440.88;5014481;28;20111;-69
2021/06/25 10:28:48;;;;;;;1.95;1.25;;;;;;;33.38;25.47;100445.81;5016513;28;20077;-69
2021/06/25 10:31:20;;;;;;;4.30;1.00;;;;;;;33.13;24.70;100452.03;5015038;28;20041;-69
2021/06/25 10:33:49;;;;;;;5.28;1.05;;;;;;;33.11;25.32;100459.50;5012965;28;20046;-69
2021/06/25 10:36:20;;;;;;;2.88;1.27;;;;;;;33.34;25.66;100455.84;5014375;28;20084;-70
2021/06/25 10:38:47;;;;;;;1.58;0.95;;;;;;;33.15;25.42;100446.63;5013674;28;20053;-69
2021/06/25 10:41:15;;;;;;;3.63;1.40;;;;;;;33.42;25.43;100457.34;5018978;28;20125;-69
2021/06/25 10:43:52;;;;;;;1.77;1.13;;;;;;;33.51;25.30;100451.84;5013082;28;20118;-69
2021/06/25 10:46:34;;;;;;;2.22;1.30;;;;;;;33.40;25.44;100425.94;5028296;28;20067;-69
2021/06/25 10:49:08;;;;;;;1.98;0.90;;;;;;;33.12;25.57;100435.09;5025557;28;20074;-69
2021/06/25 10:51:41;;;;;;;1.38;0.95;;;;;;;33.09;25.00;100459.94;5021505;28;20082;-70
2021/06/25 10:54:18;;;;;;;2.47;1.30;;;;;;;33.36;25.42;100459.09;5014934;28;20089;-69
2021/06/25 10:56:48;;;;;;;2.35;1.15;;;;;;;33.73;24.69;100461.75;5015482;28;20054;-70
2021/06/25 10:59:36;;;;;;;1.15;1.02;;;;;;;33.87;24.78;100468.53;5012550;28;20387;-69
2021/06/25 11:02:08;;;;;;;1.15;1.00;;;;;;;34.03;25.16;100454.19;5013855;28;20072;-69
2021/06/25 11:04:39;;;;;;;1.25;1.10;;;;;;;34.26;24.67;100444.59;5014374;28;20081;-70
2021/06/25 11:07:08;;;;;;;2.28;0.93;;;;;;;34.34;24.03;100456.84;5016165;28;20073;-69
2021/06/25 11:09:54;;;;;;;1.08;0.82;;;;;;;34.00;23.79;100443.47;5014539;28;20132;-70
2021/06/25 11:12:41;;;;;;;1.23;0.90;;;;;;;34.32;24.13;100442.78;5013180;28;20103;-70
2021/06/25 11:15:09;;;;;;;1.33;1.00;;;;;;;34.43;24.28;100454.19;5017869;28;20124;-70
2021/06/25 11:17:59;;;;;;;1.17;1.05;;;;;;;34.54;24.05;100440.28;5021781;28;20085;-70
2021/06/25 11:20:34;;;;;;;2.67;1.05;;;;;;;34.88;24.35;100444.91;4993764;28;20080;-69
2021/06/25 11:23:15;;;;;;;4.88;1.15;;;;;;;35.08;24.50;100430.34;5015126;28;20038;-70
2021/06/25 11:25:52;;;;;;;7.38;1.02;;;;;;;35.34;24.82;100440.84;5014089;28;20446;-69
2021/06/25 11:28:29;;;;;;;1.73;1.30;;;;;;;35.56;24.04;100435.34;5013716;28;20081;-68
2021/06/25 11:31:00;;;;;;;1.35;1.00;;;;;;;35.43;23.94;100431.50;5014820;28;20577;-68
2021/06/25 11:33:53;;;;;;;2.72;1.00;;;;;;;35.30;23.76;100450.94;5018381;28;20042;-69
2021/06/25 11:36:20;;;;;;;2.67;1.25;;;;;;;35.38;24.68;100447.38;5029940;28;20081;-67
2021/06/25 11:38:56;;;;;;;2.28;1.05;;;;;;;35.59;23.51;100440.25;5016136;28;20052;-68
2021/06/25 11:41:26;;;;;;;4.78;1.17;;;;;;;35.75;24.14;100447.28;5014247;28;20129;-67
2021/06/25 11:44:10;;;;;;;3.67;2.08;;;;;;;35.80;24.83;100432.22;5012950;28;20316;-67
2021/06/25 11:46:39;;;;;;;3.17;1.90;;;;;;;35.94;24.99;100419.38;5014080;28;20443;-67
2021/06/25 11:49:06;;;;;;;1.73;1.52;;;;;;;36.08;24.93;100429.78;5012723;28;20046;-67
2021/06/25 11:51:43;;;;;;;2.65;1.70;;;;;;;36.21;24.79;100419.84;5011635;28;20085;-67